Hobson, Montana
Current Conditions -  °F | °C
As of 1:08 PM on Wednesday 26 Nov 2014 (Local Time) from KLWT Reporting Station
Light Snow Light Snow  
Wind Chill: 20°   Ceiling: 1400
Heat Index: 29°   Visibility: 0.75mi
Dew Point: 26°   Wind: 9mph
Humidity: 89%   Direction: 90°E
Pressure: 30.14"   Gusts: NA
Location:  47°N, 109.87°W
Report Text: KLWT 262008Z AUTO 09008KT 3/4SM -SN BR FEW006 OVC014 M02/M03 A3014 RMK AO2 P0001 T10171033
Loading
Personal Weather Stations






























Interactive Weather Map New forecast layout! Learn more

10-Day Weather Forecast

Advertisements
Track Severe Weather on mobile